createdAt,value
2023-08-15T00:03:15.427Z,0
2023-08-15T00:14:08.388Z,0
2023-08-15T00:19:32.896Z,0
2023-08-15T00:25:05.447Z,0
2023-08-15T00:30:35.678Z,0
2023-08-15T00:36:26.543Z,0
2023-08-15T00:42:06.910Z,0
2023-08-15T00:47:44.303Z,7.2
2023-08-15T00:53:18.042Z,2.4
2023-08-15T01:04:23.073Z,0
2023-08-15T01:10:00.981Z,0
2023-08-15T01:15:30.567Z,0
2023-08-15T01:21:01.205Z,0
2023-08-15T01:26:29.538Z,0
2023-08-15T01:32:12.848Z,0
2023-08-15T01:37:47.636Z,0
2023-08-15T01:43:25.127Z,0
2023-08-15T01:48:43.393Z,0
2023-08-15T01:54:17.205Z,0
2023-08-15T01:59:54.794Z,0
2023-08-15T02:05:37.375Z,0
2023-08-15T02:11:20.015Z,0
2023-08-15T02:16:33.502Z,0
2023-08-15T02:22:06.654Z,0
2023-08-15T02:27:50.953Z,0
2023-08-15T02:44:42.064Z,0
2023-08-15T02:50:09.326Z,0
2023-08-15T02:55:53.258Z,0
2023-08-15T03:01:25.979Z,0
2023-08-15T03:06:57.229Z,0
2023-08-15T03:12:34.861Z,0
2023-08-15T03:17:58.578Z,0
2023-08-15T03:23:36.977Z,0
2023-08-15T03:34:34.675Z,0
2023-08-15T03:40:13.710Z,0
2023-08-15T03:45:46.738Z,0
2023-08-15T03:51:46.799Z,0
2023-08-15T03:57:06.816Z,0
2023-08-15T04:02:38.098Z,0
2023-08-15T04:08:08.004Z,0
2023-08-15T04:13:37.577Z,0
2023-08-15T04:19:11.091Z,0
2023-08-15T04:24:43.835Z,0
2023-08-15T04:30:19.099Z,0
2023-08-15T04:36:12.972Z,0
2023-08-15T04:41:39.662Z,0
2023-08-15T04:47:20.970Z,0
2023-08-15T04:52:49.009Z,5.9
2023-08-15T04:58:10.976Z,7.2
2023-08-15T05:03:54.495Z,0
2023-08-15T05:09:27.585Z,0
2023-08-15T05:15:11.085Z,0
2023-08-15T05:20:25.341Z,0
2023-08-15T05:26:14.946Z,0
2023-08-15T05:31:48.215Z,0
2023-08-15T05:37:11.622Z,0
2023-08-15T05:42:48.222Z,0
2023-08-15T05:48:20.376Z,0
2023-08-15T05:54:19.201Z,0
2023-08-15T05:59:38.457Z,0
2023-08-15T06:05:15.002Z,0
2023-08-15T06:10:36.540Z,0
2023-08-15T06:16:27.315Z,0
2023-08-15T06:21:43.971Z,4.8
2023-08-15T06:27:34.481Z,0
2023-08-15T06:33:01.835Z,0
2023-08-15T06:38:31.899Z,0
2023-08-15T06:44:14.717Z,5.9
2023-08-15T06:49:47.967Z,2.4
2023-08-15T06:55:29.125Z,0
2023-08-15T07:01:09.930Z,5.9
2023-08-15T07:06:37.664Z,3.6
2023-08-15T07:12:15.138Z,4.8
2023-08-15T07:17:48.640Z,0
2023-08-15T07:23:15.014Z,3.6
2023-08-15T07:28:54.620Z,0
2023-08-15T07:34:28.432Z,5.9
2023-08-15T07:40:20.135Z,8.4
2023-08-15T07:45:54.035Z,9.6
2023-08-15T07:51:20.782Z,7.2
2023-08-15T07:57:16.305Z,8.4
2023-08-15T08:02:30.067Z,7.2
2023-08-15T08:08:33.535Z,5.9
2023-08-15T08:13:53.617Z,8.4
2023-08-15T08:19:41.662Z,9.6
2023-08-15T08:25:07.761Z,5.9
2023-08-15T08:30:49.283Z,7.2
2023-08-15T08:36:25.056Z,5.9
2023-08-15T08:41:56.497Z,5.9
2023-08-15T08:47:28.156Z,5.9
2023-08-15T08:53:16.046Z,7.2
2023-08-15T09:04:20.159Z,7.2
2023-08-15T09:10:03.079Z,5.9
2023-08-15T09:16:00.054Z,7.2
2023-08-15T09:21:22.045Z,9.6
2023-08-15T09:27:20.400Z,8.4
2023-08-15T09:32:53.410Z,8.4
2023-08-15T09:38:16.608Z,9.6
2023-08-15T09:44:05.363Z,11.9
2023-08-15T09:49:29.275Z,10.7
2023-08-15T09:55:08.152Z,11.9
2023-08-15T10:01:01.594Z,9.6
2023-08-15T10:06:31.568Z,9.6
2023-08-15T10:12:24.055Z,10.7
2023-08-15T10:17:57.163Z,14.4
2023-08-15T10:23:36.694Z,13.2
2023-08-15T10:34:55.952Z,10.7
2023-08-15T10:40:19.548Z,7.2
2023-08-15T10:46:04.256Z,10.7
2023-08-15T10:51:26.547Z,7.2
2023-08-15T10:57:23.695Z,9.6
2023-08-15T11:02:59.830Z,9.6
2023-08-15T11:08:24.943Z,9.6
2023-08-15T11:14:05.463Z,13.2
2023-08-15T11:19:46.669Z,10.7
2023-08-15T11:25:20.347Z,11.9
2023-08-15T11:31:21.117Z,9.6
2023-08-15T11:36:35.161Z,11.9
2023-08-15T11:42:31.429Z,10.7
2023-08-15T11:47:56.715Z,9.6
2023-08-15T11:53:43.607Z,9.6
2023-08-15T11:59:23.221Z,13.2
2023-08-15T12:05:01.752Z,15.6
2023-08-15T12:10:48.368Z,14.4
2023-08-15T12:16:32.184Z,10.7
2023-08-15T12:21:53.681Z,8.4
2023-08-15T12:27:51.496Z,13.2
2023-08-15T12:33:27.285Z,8.4
2023-08-15T12:38:47.566Z,8.4
2023-08-15T12:44:47.261Z,9.6
2023-08-15T12:50:28.428Z,11.9
2023-08-15T12:56:15.217Z,11.9
2023-08-15T13:01:52.192Z,14.4
2023-08-15T13:07:20.959Z,10.7
2023-08-15T13:13:10.433Z,14.4
2023-08-15T13:18:43.877Z,11.9
2023-08-15T13:24:28.250Z,14.4
2023-08-15T13:29:48.861Z,11.9
2023-08-15T13:35:33.688Z,14.4
2023-08-15T13:41:29.907Z,13.2
2023-08-15T13:46:55.499Z,11.9
2023-08-15T13:52:43.005Z,10.7
2023-08-15T13:58:04.942Z,9.6
2023-08-15T14:03:56.061Z,9.6
2023-08-15T14:09:35.084Z,10.7
2023-08-15T14:15:25.947Z,8.4
2023-08-15T14:20:50.242Z,14.4
2023-08-15T14:26:48.564Z,14.4
2023-08-15T14:32:18.115Z,14.4
2023-08-15T14:37:57.191Z,10.7
2023-08-15T14:43:25.977Z,8.4
2023-08-15T14:54:57.022Z,8.4
2023-08-15T15:00:38.005Z,9.6
2023-08-15T15:06:15.156Z,7.2
2023-08-15T15:11:45.940Z,9.6
2023-08-15T15:17:22.384Z,8.4
2023-08-15T15:23:14.258Z,14.4
2023-08-15T15:34:44.265Z,15.6
2023-08-15T15:40:12.735Z,18
2023-08-15T15:45:35.484Z,18
2023-08-15T15:51:18.181Z,16.8
2023-08-15T15:57:09.175Z,19.2
2023-08-15T16:02:46.214Z,14.4
2023-08-15T16:08:03.979Z,14.4
2023-08-15T16:19:41.274Z,18
2023-08-15T16:25:02.688Z,16.8
2023-08-15T16:30:54.227Z,18
2023-08-15T16:36:18.951Z,16.8
2023-08-15T16:42:15.554Z,16.8
2023-08-15T16:47:47.967Z,19.2
2023-08-15T16:53:32.179Z,19.2
2023-08-15T17:04:51.324Z,16.8
2023-08-15T17:10:33.727Z,16.8
2023-08-15T17:16:14.862Z,18
2023-08-15T17:21:31.715Z,14.4
2023-08-15T17:27:25.132Z,9.6
2023-08-15T17:32:57.068Z,13.2
2023-08-15T17:38:28.204Z,13.2
2023-08-15T17:44:00.113Z,10.7
2023-08-15T17:50:02.784Z,8.4
2023-08-15T17:55:27.741Z,10.7
2023-08-15T18:01:17.617Z,13.2
2023-08-15T18:06:41.224Z,9.6
2023-08-15T18:12:11.976Z,10.7
2023-08-15T18:17:47.025Z,10.7
2023-08-15T18:23:29.434Z,11.9
2023-08-15T18:29:00.398Z,13.2
2023-08-15T18:34:48.159Z,10.7
2023-08-15T18:40:31.409Z,7.2
2023-08-15T18:46:01.395Z,3.6
2023-08-15T18:51:29.502Z,7.2
2023-08-15T18:56:59.946Z,2.4
2023-08-15T19:02:57.920Z,3.6
2023-08-15T19:08:25.793Z,3.6
2023-08-15T19:19:37.184Z,2.4
2023-08-15T19:25:15.075Z,0
2023-08-15T19:30:46.715Z,4.8
2023-08-15T19:36:16.899Z,0
2023-08-15T19:41:53.815Z,5.9
2023-08-15T19:47:25.882Z,5.9
2023-08-15T19:53:05.270Z,3.6
2023-08-15T19:58:43.443Z,5.9
2023-08-15T20:04:14.126Z,7.2
2023-08-15T20:10:08.822Z,8.4
2023-08-15T20:15:40.778Z,9.6
2023-08-15T20:21:09.500Z,9.6
2023-08-15T20:26:50.055Z,8.4
2023-08-15T20:32:12.871Z,9.6
2023-08-15T20:37:59.883Z,9.6
2023-08-15T20:49:10.130Z,3.6
2023-08-15T20:54:23.822Z,3.6
2023-08-15T21:00:01.960Z,0
2023-08-15T21:05:47.528Z,0
2023-08-15T21:11:26.082Z,0
2023-08-15T21:17:02.261Z,0
2023-08-15T21:22:34.180Z,0
2023-08-15T21:28:17.397Z,0
2023-08-15T21:44:49.767Z,0
2023-08-15T21:50:24.281Z,0
2023-08-15T21:55:47.168Z,0
2023-08-15T22:01:26.427Z,0
2023-08-15T22:07:02.239Z,2.4
2023-08-15T22:12:42.088Z,3.6
2023-08-15T22:18:33.263Z,0
2023-08-15T22:29:26.896Z,5.9
2023-08-15T22:34:53.807Z,8.4
2023-08-15T22:40:41.701Z,7.2
2023-08-15T22:46:04.580Z,4.8
2023-08-15T22:51:56.400Z,4.8
2023-08-15T22:57:12.313Z,5.9
2023-08-15T23:03:28.338Z,0
2023-08-15T23:08:31.125Z,0
2023-08-15T23:19:55.900Z,0
2023-08-15T23:25:27.247Z,0
2023-08-15T23:31:04.408Z,0
2023-08-15T23:36:23.092Z,0
2023-08-15T23:41:47.020Z,0
2023-08-15T23:47:31.884Z,0
2023-08-15T23:52:55.926Z,0
2023-08-15T23:58:36.368Z,0
